Terminal Aerodrome Forecast
Issued by NWS

Home | Current Version | Previous Version | Text Only | Print | Product List | Glossary Off
Versions: 1 2 3 4 5 6 7 8 9 10 11 12 13 14 15 16 17 18 19 20 21 22 23 24 25 26 27 28 29 30

304
FTUS45 KGGW 231724 AAA
TAFGDV
TAF AMD
KGDV 231724Z 2317/2418 06008KT P6SM OVC005
     FM240000 03008KT P6SM -SN OVC007
     FM240100 02008KT P6SM VCSH OVC007
     FM241500 32008KT P6SM BKN009=

USA.gov is the U.S. government's official web portal to all federal, state and local government web resources and services.